Time;durP1;ratioP1;P1;durP2;ratioP2;P2;SDS_P1;SDS_P2;PMS_P1;PMS_P2;Temp;Humidity;BMP_temperature;BMP_pressure;BME280_temperature;BME280_humidity;BME280_pressure;Samples;Min_cycle;Max_cycle;Signal;HPM_P1;HPM_P2
2022/12/05 00:00:36;;;;;;;20.70;10.85;;;;;;;;;;4740754;30;20036;-77
2022/12/05 00:03:04;;;;;;;23.33;10.73;;;;;;;;;;4741781;30;20043;-77
2022/12/05 00:05:30;;;;;;;23.63;11.93;;;;;;;;;;4747393;30;20418;-77
2022/12/05 00:07:55;;;;;;;24.33;10.70;;;;;;;;;;4744782;30;20046;-77
2022/12/05 00:10:21;;;;;;;23.85;10.55;;;;;;;;;;4728087;30;20028;-77
2022/12/05 00:12:46;;;;;;;22.83;11.25;;;;;;;;;;4741800;30;20033;-77
2022/12/05 00:15:12;;;;;;;18.92;10.57;;;;;;;;;;4751161;30;20117;-77
2022/12/05 00:17:39;;;;;;;21.55;11.05;;;;;;;;;;4742749;30;20040;-77
2022/12/05 00:20:06;;;;;;;21.00;11.35;;;;;;;;;;4754976;30;20138;-77
2022/12/05 00:22:35;;;;;;;25.42;11.40;;;;;;;;;;4759580;30;20036;-77
2022/12/05 00:25:00;;;;;;;20.52;10.60;;;;;;;;;;4760356;30;20378;-77
2022/12/05 00:27:25;;;;;;;21.77;10.93;;;;;;;;;;4761349;30;20042;-77
2022/12/05 00:29:51;;;;;;;24.70;12.38;;;;;;;;;;4741667;30;20393;-76
2022/12/05 00:32:16;;;;;;;23.88;11.15;;;;;;;;;;4763452;30;20060;-77
2022/12/05 00:34:41;;;;;;;23.17;11.18;;;;;;;;;;4757495;30;20044;-76
2022/12/05 00:37:07;;;;;;;21.75;11.38;;;;;;;;;;4758974;30;20046;-76
2022/12/05 00:39:32;;;;;;;26.17;12.25;;;;;;;;;;4763335;30;20032;-77
2022/12/05 00:41:57;;;;;;;20.70;10.68;;;;;;;;;;4742322;30;20093;-77
2022/12/05 00:44:23;;;;;;;21.33;11.40;;;;;;;;;;4762454;30;20469;-77
2022/12/05 00:46:48;;;;;;;22.98;12.00;;;;;;;;;;4755052;30;20064;-76
2022/12/05 00:49:13;;;;;;;23.90;10.85;;;;;;;;;;4761697;30;20038;-77
2022/12/05 00:51:41;;;;;;;19.92;10.10;;;;;;;;;;4738574;30;20059;-77
2022/12/05 00:54:12;;;;;;;25.50;12.18;;;;;;;;;;4761576;30;20114;-77
2022/12/05 00:56:37;;;;;;;20.10;10.88;;;;;;;;;;4758900;30;20092;-77
2022/12/05 00:59:03;;;;;;;24.15;11.65;;;;;;;;;;4754230;30;20039;-77
2022/12/05 01:01:39;;;;;;;23.58;10.98;;;;;;;;;;4754336;30;20035;-77
2022/12/05 01:04:25;;;;;;;22.67;10.82;;;;;;;;;;4757387;30;20490;-77
2022/12/05 01:06:54;;;;;;;24.48;11.43;;;;;;;;;;4746082;30;20131;-76
2022/12/05 01:09:20;;;;;;;21.17;10.45;;;;;;;;;;4749251;30;20027;-78
2022/12/05 01:11:47;;;;;;;22.00;11.25;;;;;;;;;;4763073;30;20113;-77
2022/12/05 01:14:14;;;;;;;23.90;10.88;;;;;;;;;;4749473;30;20028;-77
2022/12/05 01:16:44;;;;;;;24.63;11.43;;;;;;;;;;4742257;30;20098;-77
2022/12/05 01:19:15;;;;;;;25.70;12.63;;;;;;;;;;4758258;30;20035;-78
2022/12/05 01:21:41;;;;;;;23.45;12.23;;;;;;;;;;4756800;30;20036;-77
2022/12/05 01:24:07;;;;;;;25.50;12.30;;;;;;;;;;4744709;30;20042;-77
2022/12/05 01:26:33;;;;;;;27.80;13.48;;;;;;;;;;4754809;30;20571;-77
2022/12/05 01:28:58;;;;;;;24.65;13.35;;;;;;;;;;4757772;30;20138;-77
2022/12/05 01:31:25;;;;;;;23.77;11.98;;;;;;;;;;4744326;30;20071;-78
2022/12/05 01:33:52;;;;;;;27.85;13.40;;;;;;;;;;4763541;30;20048;-77
2022/12/05 01:36:18;;;;;;;25.90;11.98;;;;;;;;;;4763477;30;20546;-76
2022/12/05 01:38:43;;;;;;;23.05;11.48;;;;;;;;;;4761762;30;20040;-77
2022/12/05 01:41:13;;;;;;;27.00;13.15;;;;;;;;;;4752133;30;20089;-76
2022/12/05 01:43:59;;;;;;;26.65;10.85;;;;;;;;;;4752668;30;20109;-77
2022/12/05 01:46:27;;;;;;;23.70;11.75;;;;;;;;;;4762593;30;20107;-77
2022/12/05 01:48:57;;;;;;;24.33;11.80;;;;;;;;;;4759909;30;20050;-77
2022/12/05 01:51:23;;;;;;;26.63;11.65;;;;;;;;;;4765886;30;20036;-78
2022/12/05 01:53:49;;;;;;;27.75;13.05;;;;;;;;;;4754999;30;20035;-76
2022/12/05 01:56:15;;;;;;;27.08;12.32;;;;;;;;;;4754334;30;20096;-77
2022/12/05 01:58:43;;;;;;;24.95;11.93;;;;;;;;;;4768180;30;20047;-77
2022/12/05 02:01:10;;;;;;;25.20;12.50;;;;;;;;;;4764716;30;21235;-76
2022/12/05 02:03:36;;;;;;;29.55;12.63;;;;;;;;;;4767690;30;20023;-77
2022/12/05 02:06:02;;;;;;;25.45;11.82;;;;;;;;;;4767918;30;20115;-77
2022/12/05 02:08:28;;;;;;;25.63;11.88;;;;;;;;;;4770216;30;20180;-77
2022/12/05 02:10:56;;;;;;;27.85;13.10;;;;;;;;;;4764901;30;20044;-77
2022/12/05 02:13:45;;;;;;;26.25;12.63;;;;;;;;;;4775328;30;20035;-76
2022/12/05 02:16:31;;;;;;;23.65;11.00;;;;;;;;;;4767056;30;20434;-77
2022/12/05 02:19:02;;;;;;;25.00;12.15;;;;;;;;;;4741349;30;20040;-77
2022/12/05 02:21:51;;;;;;;26.60;11.95;;;;;;;;;;4762819;30;20054;-77
2022/12/05 02:24:38;;;;;;;29.60;12.18;;;;;;;;;;4753215;30;20031;-76
2022/12/05 02:27:26;;;;;;;23.13;11.25;;;;;;;;;;4766074;30;20043;-77
2022/12/05 02:30:32;;;;;;;22.80;12.02;;;;;;;;;;4758110;30;20120;-76
2022/12/05 02:33:20;;;;;;;23.10;10.93;;;;;;;;;;4726740;30;20131;-77
2022/12/05 02:35:58;;;;;;;23.92;11.80;;;;;;;;;;4756535;30;20042;-76
2022/12/05 02:38:35;;;;;;;25.10;12.05;;;;;;;;;;4760892;30;20489;-76
2022/12/05 02:41:03;;;;;;;25.02;11.43;;;;;;;;;;4763490;30;20091;-76
2022/12/05 02:43:39;;;;;;;22.63;10.68;;;;;;;;;;4744803;30;20402;-76
2022/12/05 02:46:13;;;;;;;24.17;11.27;;;;;;;;;;4756846;30;20433;-77
2022/12/05 02:48:41;;;;;;;26.63;12.02;;;;;;;;;;4758067;30;20127;-76
2022/12/05 02:51:09;;;;;;;28.08;12.68;;;;;;;;;;4761305;30;20042;-77
2022/12/05 02:53:36;;;;;;;25.05;12.20;;;;;;;;;;4762134;30;20046;-76
2022/12/05 02:56:02;;;;;;;24.90;11.48;;;;;;;;;;4762383;30;20494;-77
2022/12/05 02:58:34;;;;;;;25.25;11.82;;;;;;;;;;4763194;30;20114;-77
2022/12/05 03:01:01;;;;;;;28.70;13.10;;;;;;;;;;4762666;30;20032;-77
2022/12/05 03:03:27;;;;;;;24.38;11.75;;;;;;;;;;4763465;30;20028;-77
2022/12/05 03:05:56;;;;;;;29.58;13.35;;;;;;;;;;4762722;30;20458;-77
2022/12/05 03:08:25;;;;;;;26.80;12.68;;;;;;;;;;4757944;30;20417;-77
2022/12/05 03:10:52;;;;;;;26.35;12.32;;;;;;;;;;4769188;30;20039;-77
2022/12/05 03:13:35;;;;;;;27.77;12.85;;;;;;;;;;4761174;30;20035;-76
2022/12/05 03:16:07;;;;;;;25.13;11.55;;;;;;;;;;4761163;30;20143;-77
2022/12/05 03:18:41;;;;;;;22.88;11.52;;;;;;;;;;4747620;30;20407;-76
2022/12/05 03:21:34;;;;;;;23.65;11.20;;;;;;;;;;4746230;30;20482;-76
2022/12/05 03:24:04;;;;;;;20.50;10.38;;;;;;;;;;4761536;30;20390;-76
2022/12/05 03:26:51;;;;;;;24.75;11.80;;;;;;;;;;4763300;30;20103;-77
2022/12/05 03:29:27;;;;;;;21.83;11.15;;;;;;;;;;4761359;30;20040;-77
2022/12/05 03:32:05;;;;;;;24.83;11.20;;;;;;;;;;4759956;30;20028;-77
2022/12/05 03:34:47;;;;;;;29.98;11.98;;;;;;;;;;4760521;30;20038;-77
2022/12/05 03:37:27;;;;;;;24.73;11.52;;;;;;;;;;4763201;30;20315;-77
2022/12/05 03:40:16;;;;;;;24.15;11.90;;;;;;;;;;4762153;30;20127;-77
2022/12/05 03:42:52;;;;;;;26.05;12.13;;;;;;;;;;4755585;30;20090;-77
2022/12/05 03:45:24;;;;;;;24.15;11.73;;;;;;;;;;4765107;30;20040;-77
2022/12/05 03:48:10;;;;;;;26.08;12.13;;;;;;;;;;4744989;30;20042;-77
2022/12/05 03:50:40;;;;;;;24.92;10.93;;;;;;;;;;4760287;30;20521;-77
2022/12/05 03:53:36;;;;;;;24.80;11.77;;;;;;;;;;4760191;30;20587;-77
2022/12/05 03:56:09;;;;;;;24.92;12.18;;;;;;;;;;4750040;30;20117;-76
2022/12/05 03:58:40;;;;;;;21.02;11.10;;;;;;;;;;4758657;30;20489;-77
2022/12/05 04:01:07;;;;;;;22.60;11.43;;;;;;;;;;4757330;30;20390;-77
2022/12/05 04:03:39;;;;;;;23.83;11.65;;;;;;;;;;4762632;30;22509;-77
2022/12/05 04:06:14;;;;;;;21.97;10.70;;;;;;;;;;4748405;30;20032;-77
2022/12/05 04:08:52;;;;;;;23.40;11.05;;;;;;;;;;4747685;30;20031;-78
2022/12/05 04:11:21;;;;;;;23.95;10.73;;;;;;;;;;4758851;30;20144;-77
2022/12/05 04:13:51;;;;;;;22.75;10.98;;;;;;;;;;4755952;30;20032;-76
2022/12/05 04:19:22;;;;;;;22.50;10.55;;;;;;;;;;4762255;30;20557;-76
2022/12/05 04:21:52;;;;;;;20.52;10.43;;;;;;;;;;4758278;30;20464;-76
2022/12/05 04:27:15;;;;;;;21.88;11.00;;;;;;;;;;4755516;30;20194;-76
2022/12/05 04:30:09;;;;;;;22.75;10.73;;;;;;;;;;4764783;30;20039;-77
2022/12/05 04:32:47;;;;;;;20.92;10.93;;;;;;;;;;4767252;30;20084;-77
2022/12/05 04:35:19;;;;;;;21.38;10.23;;;;;;;;;;4762418;30;20061;-77
2022/12/05 04:37:48;;;;;;;21.88;10.30;;;;;;;;;;4743616;30;20070;-77
2022/12/05 04:40:23;;;;;;;20.33;10.38;;;;;;;;;;4761921;30;20043;-76
2022/12/05 04:42:51;;;;;;;20.10;10.05;;;;;;;;;;4760531;30;20454;-77
2022/12/05 04:45:20;;;;;;;19.33;9.35;;;;;;;;;;4744251;30;20036;-77
2022/12/05 04:47:52;;;;;;;22.65;10.05;;;;;;;;;;4741472;30;20027;-77
2022/12/05 04:50:19;;;;;;;23.13;10.27;;;;;;;;;;4761680;30;20036;-77
2022/12/05 04:52:49;;;;;;;19.50;10.07;;;;;;;;;;4761658;30;20448;-77
2022/12/05 04:55:24;;;;;;;21.40;10.85;;;;;;;;;;4756587;30;20042;-77
2022/12/05 04:58:01;;;;;;;18.85;10.15;;;;;;;;;;4757957;30;20486;-77
2022/12/05 05:00:28;;;;;;;25.10;10.27;;;;;;;;;;4750158;30;20139;-76
2022/12/05 05:03:02;;;;;;;22.25;10.70;;;;;;;;;;4757602;30;20507;-77
2022/12/05 05:05:29;;;;;;;23.25;10.32;;;;;;;;;;4752993;30;20020;-78
2022/12/05 05:07:55;;;;;;;20.90;10.30;;;;;;;;;;4756766;30;20050;-76
2022/12/05 05:10:31;;;;;;;20.33;10.13;;;;;;;;;;4747283;30;20032;-77
2022/12/05 05:12:56;;;;;;;20.08;9.95;;;;;;;;;;4742657;30;20039;-77
2022/12/05 05:15:22;;;;;;;17.80;9.23;;;;;;;;;;4764948;30;20072;-77
2022/12/05 05:17:47;;;;;;;20.45;10.45;;;;;;;;;;4749386;30;20046;-77
2022/12/05 05:20:25;;;;;;;19.02;9.30;;;;;;;;;;4763014;30;20036;-77
2022/12/05 05:22:53;;;;;;;17.83;9.10;;;;;;;;;;4766219;30;20024;-77
2022/12/05 05:25:19;;;;;;;16.55;9.57;;;;;;;;;;4741479;30;20036;-77
2022/12/05 05:27:50;;;;;;;19.40;9.38;;;;;;;;;;4763463;30;20028;-76
2022/12/05 05:30:16;;;;;;;19.15;9.02;;;;;;;;;;4760528;30;20120;-77
2022/12/05 05:32:41;;;;;;;18.27;9.93;;;;;;;;;;4764565;30;20551;-77
2022/12/05 05:35:07;;;;;;;17.98;8.82;;;;;;;;;;4766246;30;20032;-77
2022/12/05 05:37:33;;;;;;;19.48;9.65;;;;;;;;;;4761558;30;20106;-77
2022/12/05 05:39:58;;;;;;;17.15;8.60;;;;;;;;;;4760267;30;20028;-77
2022/12/05 05:42:23;;;;;;;18.48;9.25;;;;;;;;;;4757018;30;20040;-77
2022/12/05 05:44:49;;;;;;;17.83;9.38;;;;;;;;;;4756919;30;20027;-77
2022/12/05 05:47:14;;;;;;;19.88;9.25;;;;;;;;;;4762492;30;20481;-77
2022/12/05 05:49:39;;;;;;;17.23;9.18;;;;;;;;;;4756764;30;20036;-76
2022/12/05 05:52:05;;;;;;;19.98;9.63;;;;;;;;;;4765100;30;20039;-77
2022/12/05 05:54:30;;;;;;;19.42;9.80;;;;;;;;;;4742810;30;20039;-77
2022/12/05 05:56:55;;;;;;;17.40;9.10;;;;;;;;;;4762710;30;20067;-77
2022/12/05 05:59:21;;;;;;;18.08;9.05;;;;;;;;;;4766686;30;20397;-77
2022/12/05 06:01:46;;;;;;;17.67;9.48;;;;;;;;;;4749296;30;20035;-77
2022/12/05 06:04:11;;;;;;;16.70;8.35;;;;;;;;;;4764607;30;20043;-77
2022/12/05 06:06:37;;;;;;;19.90;9.57;;;;;;;;;;4774848;30;20032;-77
2022/12/05 06:09:05;;;;;;;19.98;9.93;;;;;;;;;;4766831;30;20443;-77
2022/12/05 06:11:30;;;;;;;16.73;8.25;;;;;;;;;;4765194;30;20063;-77
2022/12/05 06:14:01;;;;;;;19.13;9.35;;;;;;;;;;4744313;30;20079;-77
2022/12/05 06:16:28;;;;;;;17.13;8.88;;;;;;;;;;4761711;30;20055;-77
2022/12/05 06:18:53;;;;;;;17.98;9.38;;;;;;;;;;4753843;30;20206;-77
2022/12/05 06:21:19;;;;;;;22.15;9.88;;;;;;;;;;4755983;30;20383;-77
2022/12/05 06:23:45;;;;;;;20.02;8.73;;;;;;;;;;4762433;30;20040;-76
2022/12/05 06:26:13;;;;;;;14.70;8.13;;;;;;;;;;4766757;30;20453;-76
2022/12/05 06:28:39;;;;;;;19.77;9.05;;;;;;;;;;4769073;30;20031;-77
2022/12/05 06:31:09;;;;;;;18.52;8.93;;;;;;;;;;4745808;30;20035;-76
2022/12/05 06:33:35;;;;;;;16.08;8.80;;;;;;;;;;4764311;30;20039;-77
2022/12/05 06:36:03;;;;;;;17.33;9.18;;;;;;;;;;4768484;30;20052;-77
2022/12/05 06:38:28;;;;;;;17.63;8.75;;;;;;;;;;4746286;30;20042;-77
2022/12/05 06:40:54;;;;;;;16.35;8.63;;;;;;;;;;4766880;30;20040;-77
2022/12/05 06:43:19;;;;;;;21.88;10.05;;;;;;;;;;4747347;30;20191;-77
2022/12/05 06:45:45;;;;;;;19.85;8.70;;;;;;;;;;4745862;30;20039;-77
2022/12/05 06:48:10;;;;;;;17.25;8.00;;;;;;;;;;4764679;30;20050;-76
2022/12/05 06:50:35;;;;;;;17.63;8.25;;;;;;;;;;4762025;30;20035;-77
2022/12/05 06:53:01;;;;;;;17.52;8.90;;;;;;;;;;4766408;30;20132;-76
2022/12/05 06:55:26;;;;;;;15.65;7.85;;;;;;;;;;4768308;30;20397;-76
2022/12/05 06:57:51;;;;;;;16.42;8.75;;;;;;;;;;4767975;30;20036;-77
2022/12/05 07:03:01;;;;;;;17.67;8.35;;;;;;;;;;4761183;30;20035;-76
2022/12/05 07:05:26;;;;;;;16.65;8.90;;;;;;;;;;4763964;30;20031;-77
2022/12/05 07:07:51;;;;;;;16.25;8.10;;;;;;;;;;4765939;30;20027;-76
2022/12/05 07:10:17;;;;;;;18.40;8.77;;;;;;;;;;4763635;30;20027;-77
2022/12/05 07:12:42;;;;;;;16.50;8.60;;;;;;;;;;4757175;30;20059;-77
2022/12/05 07:15:08;;;;;;;15.75;8.20;;;;;;;;;;4762099;30;20047;-77
2022/12/05 07:17:36;;;;;;;16.02;7.88;;;;;;;;;;4762770;30;20716;-76
2022/12/05 07:20:02;;;;;;;17.13;8.52;;;;;;;;;;4764269;30;20032;-77
2022/12/05 07:22:28;;;;;;;18.80;9.05;;;;;;;;;;4769294;30;20036;-77
2022/12/05 07:24:53;;;;;;;14.95;8.45;;;;;;;;;;4743045;30;20038;-77
2022/12/05 07:27:19;;;;;;;16.33;8.38;;;;;;;;;;4753499;30;20037;-77
2022/12/05 07:29:44;;;;;;;17.63;8.18;;;;;;;;;;4765920;30;20036;-77
2022/12/05 07:32:09;;;;;;;17.17;8.32;;;;;;;;;;4752910;30;20493;-77
2022/12/05 07:34:37;;;;;;;15.77;8.13;;;;;;;;;;4767425;30;20413;-77
2022/12/05 07:37:03;;;;;;;15.90;8.65;;;;;;;;;;4758763;30;20811;-77
2022/12/05 07:39:28;;;;;;;16.83;8.85;;;;;;;;;;4760112;30;20168;-77
2022/12/05 07:41:53;;;;;;;16.00;8.30;;;;;;;;;;4769044;30;20035;-77
2022/12/05 07:44:19;;;;;;;14.82;7.80;;;;;;;;;;4768787;30;20032;-77
2022/12/05 07:46:44;;;;;;;15.43;7.38;;;;;;;;;;4766172;30;20039;-76
2022/12/05 07:49:10;;;;;;;17.73;8.68;;;;;;;;;;4768349;30;20038;-76
2022/12/05 07:51:35;;;;;;;15.43;7.72;;;;;;;;;;4761931;30;20086;-77
2022/12/05 07:54:01;;;;;;;14.77;8.20;;;;;;;;;;4756792;30;20031;-76
2022/12/05 07:56:26;;;;;;;18.98;8.88;;;;;;;;;;4748592;30;20402;-76
2022/12/05 07:58:52;;;;;;;15.30;8.10;;;;;;;;;;4768074;30;20047;-77
2022/12/05 08:01:23;;;;;;;15.18;8.48;;;;;;;;;;4765652;30;20043;-76
2022/12/05 08:03:51;;;;;;;14.80;8.82;;;;;;;;;;4767590;30;20033;-76
2022/12/05 08:06:21;;;;;;;17.50;9.30;;;;;;;;;;4750580;30;20035;-77
2022/12/05 08:08:48;;;;;;;15.45;8.25;;;;;;;;;;4758511;30;20039;-76
2022/12/05 08:11:20;;;;;;;17.15;8.98;;;;;;;;;;4766630;30;20027;-77
2022/12/05 08:13:46;;;;;;;13.90;7.97;;;;;;;;;;4767252;30;20060;-77
2022/12/05 08:16:14;;;;;;;15.45;8.40;;;;;;;;;;4765735;30;20506;-77
2022/12/05 08:18:40;;;;;;;13.75;7.78;;;;;;;;;;4764827;30;20486;-76
2022/12/05 08:21:08;;;;;;;14.82;7.72;;;;;;;;;;4775285;30;20043;-76
2022/12/05 08:23:35;;;;;;;15.20;7.97;;;;;;;;;;4767184;30;20059;-76
2022/12/05 08:26:05;;;;;;;14.80;7.95;;;;;;;;;;4770676;30;20036;-76
2022/12/05 08:28:32;;;;;;;17.05;8.23;;;;;;;;;;4764663;30;20032;-76
2022/12/05 08:31:09;;;;;;;14.75;8.15;;;;;;;;;;4770147;30;20067;-76
2022/12/05 08:33:35;;;;;;;15.32;7.93;;;;;;;;;;4758907;30;20130;-76
2022/12/05 08:36:03;;;;;;;18.95;9.05;;;;;;;;;;4767000;30;20494;-77
2022/12/05 08:38:28;;;;;;;14.93;7.88;;;;;;;;;;4764566;30;20031;-76
2022/12/05 08:40:53;;;;;;;14.85;7.95;;;;;;;;;;4767942;30;20439;-77
2022/12/05 08:43:19;;;;;;;14.32;7.65;;;;;;;;;;4751432;30;20472;-76
2022/12/05 08:45:52;;;;;;;13.55;7.45;;;;;;;;;;4768768;30;20039;-76
2022/12/05 08:48:17;;;;;;;15.48;8.10;;;;;;;;;;4763228;30;20077;-76
2022/12/05 08:50:43;;;;;;;16.35;8.73;;;;;;;;;;4768359;30;20039;-77
2022/12/05 08:53:08;;;;;;;14.90;7.88;;;;;;;;;;4770121;30;20077;-76
2022/12/05 08:55:34;;;;;;;14.80;8.38;;;;;;;;;;4752319;30;20110;-77
2022/12/05 08:58:00;;;;;;;14.55;7.97;;;;;;;;;;4771993;30;20131;-76
2022/12/05 09:00:25;;;;;;;19.30;8.73;;;;;;;;;;4763464;30;20028;-77
2022/12/05 09:02:50;;;;;;;14.18;8.00;;;;;;;;;;4744765;30;20028;-76
2022/12/05 09:05:16;;;;;;;15.77;7.78;;;;;;;;;;4764834;30;20032;-76
2022/12/05 09:07:41;;;;;;;13.32;7.10;;;;;;;;;;4763516;30;20040;-76
2022/12/05 09:10:08;;;;;;;14.77;7.80;;;;;;;;;;4749829;30;20030;-76
2022/12/05 09:12:35;;;;;;;14.82;8.02;;;;;;;;;;4765147;30;20182;-76
2022/12/05 09:15:00;;;;;;;15.40;8.13;;;;;;;;;;4764746;30;20051;-76
2022/12/05 09:17:26;;;;;;;14.77;8.27;;;;;;;;;;4766979;30;20153;-77
2022/12/05 09:19:51;;;;;;;15.00;8.27;;;;;;;;;;4763524;30;20043;-76
2022/12/05 09:22:17;;;;;;;16.45;8.32;;;;;;;;;;4766767;30;20110;-76
2022/12/05 09:24:42;;;;;;;14.73;8.15;;;;;;;;;;4765069;30;20040;-76
2022/12/05 09:27:08;;;;;;;14.25;8.32;;;;;;;;;;4769187;30;20035;-76
2022/12/05 09:29:33;;;;;;;14.63;8.10;;;;;;;;;;4767165;30;20394;-76
2022/12/05 09:31:59;;;;;;;19.15;9.07;;;;;;;;;;4755997;30;20117;-76
2022/12/05 09:34:24;;;;;;;16.08;8.30;;;;;;;;;;4764800;30;20028;-77
2022/12/05 09:36:50;;;;;;;14.90;8.68;;;;;;;;;;4765052;30;20739;-76
2022/12/05 09:39:16;;;;;;;16.38;8.45;;;;;;;;;;4768331;30;20170;-76
2022/12/05 09:44:50;;;;;;;17.95;9.57;;;;;;;;;;4766351;30;20578;-76
2022/12/05 09:47:22;;;;;;;16.17;8.10;;;;;;;;;;4761884;30;20023;-77
2022/12/05 09:50:15;;;;;;;15.30;8.30;;;;;;;;;;4777131;30;20118;-77
2022/12/05 09:52:49;;;;;;;17.45;8.15;;;;;;;;;;4767392;30;20508;-76
2022/12/05 09:55:17;;;;;;;14.73;8.02;;;;;;;;;;4773486;30;20027;-77
2022/12/05 09:57:57;;;;;;;13.98;7.80;;;;;;;;;;4763366;30;20391;-76
2022/12/05 10:00:23;;;;;;;14.05;7.82;;;;;;;;;;4751142;30;20490;-76
2022/12/05 10:03:18;;;;;;;13.27;7.35;;;;;;;;;;4751464;30;20039;-77
2022/12/05 10:06:25;;;;;;;13.57;7.32;;;;;;;;;;4766019;30;20524;-76
2022/12/05 10:09:05;;;;;;;12.13;7.47;;;;;;;;;;4687246;30;20045;-77
2022/12/05 10:11:36;;;;;;;10.85;6.55;;;;;;;;;;4753666;30;20510;-77
2022/12/05 10:14:43;;;;;;;12.52;6.88;;;;;;;;;;4754510;30;20640;-77
2022/12/05 10:17:33;;;;;;;12.07;6.70;;;;;;;;;;4760480;30;20588;-76
2022/12/05 10:20:02;;;;;;;12.15;7.05;;;;;;;;;;4767669;30;20121;-77
2022/12/05 10:22:36;;;;;;;12.02;7.30;;;;;;;;;;4777278;30;20043;-77
2022/12/05 10:25:04;;;;;;;14.43;7.82;;;;;;;;;;4761802;30;20138;-77
2022/12/05 10:27:35;;;;;;;13.82;7.32;;;;;;;;;;4748162;30;20481;-77
2022/12/05 10:30:21;;;;;;;12.02;7.53;;;;;;;;;;4767367;30;20043;-77
2022/12/05 10:33:01;;;;;;;13.85;7.32;;;;;;;;;;4767592;30;20042;-76
2022/12/05 10:35:32;;;;;;;13.80;7.90;;;;;;;;;;4754984;30;20092;-77
2022/12/05 10:38:02;;;;;;;12.57;7.05;;;;;;;;;;4768159;30;20173;-76
2022/12/05 10:40:40;;;;;;;12.48;7.68;;;;;;;;;;4778554;30;20027;-77
2022/12/05 10:43:07;;;;;;;13.30;7.03;;;;;;;;;;4758308;30;20485;-77
2022/12/05 10:45:40;;;;;;;12.95;7.53;;;;;;;;;;4768251;30;20418;-76
2022/12/05 10:48:10;;;;;;;13.18;7.40;;;;;;;;;;4757366;30;20032;-77
2022/12/05 10:50:37;;;;;;;13.32;7.47;;;;;;;;;;4767526;30;20035;-76
2022/12/05 10:53:05;;;;;;;12.73;6.65;;;;;;;;;;4767155;30;20120;-77
2022/12/05 10:55:41;;;;;;;11.82;6.80;;;;;;;;;;4766241;30;20043;-76
2022/12/05 10:58:22;;;;;;;12.40;6.78;;;;;;;;;;4768221;30;20031;-76
2022/12/05 11:00:50;;;;;;;11.02;6.45;;;;;;;;;;4746849;30;20177;-76
2022/12/05 11:03:28;;;;;;;11.15;6.18;;;;;;;;;;4766473;30;20516;-76
2022/12/05 11:05:59;;;;;;;10.63;6.45;;;;;;;;;;4744713;30;20055;-77
2022/12/05 11:08:34;;;;;;;12.27;6.97;;;;;;;;;;4752399;30;20470;-77
2022/12/05 11:11:32;;;;;;;10.13;5.82;;;;;;;;;;4760754;30;20028;-77
2022/12/05 11:14:17;;;;;;;10.77;6.07;;;;;;;;;;4769086;30;20527;-77
2022/12/05 11:16:54;;;;;;;10.98;6.63;;;;;;;;;;4762342;30;20501;-76
2022/12/05 11:19:20;;;;;;;10.77;6.68;;;;;;;;;;4766667;30;20458;-76
2022/12/05 11:21:46;;;;;;;12.35;6.20;;;;;;;;;;4762712;30;20046;-77
2022/12/05 11:24:21;;;;;;;12.25;7.13;;;;;;;;;;4764747;30;20040;-76
2022/12/05 11:26:47;;;;;;;12.63;6.53;;;;;;;;;;4765040;30;20509;-77
2022/12/05 11:29:35;;;;;;;11.88;6.40;;;;;;;;;;4762823;30;21209;-76
2022/12/05 11:32:05;;;;;;;10.57;6.10;;;;;;;;;;4773892;30;20122;-76
2022/12/05 11:34:53;;;;;;;10.65;6.00;;;;;;;;;;4752008;30;20032;-76
2022/12/05 11:37:26;;;;;;;11.05;6.15;;;;;;;;;;4738532;30;20075;-77
2022/12/05 11:39:52;;;;;;;10.60;6.07;;;;;;;;;;4746408;30;20643;-76
2022/12/05 11:42:32;;;;;;;11.55;5.75;;;;;;;;;;4761634;30;20115;-76
2022/12/05 11:45:32;;;;;;;9.23;5.70;;;;;;;;;;4767448;30;20031;-76
2022/12/05 11:48:30;;;;;;;9.30;5.20;;;;;;;;;;4747430;30;20038;-76
2022/12/05 11:51:21;;;;;;;10.80;6.20;;;;;;;;;;4757634;30;20115;-77
2022/12/05 11:54:18;;;;;;;8.82;5.45;;;;;;;;;;4765159;30;20042;-77
2022/12/05 11:56:55;;;;;;;8.77;5.30;;;;;;;;;;4750978;30;20043;-76
2022/12/05 11:59:43;;;;;;;9.30;5.43;;;;;;;;;;4769714;30;20123;-76
2022/12/05 12:02:38;;;;;;;9.05;5.50;;;;;;;;;;4766107;30;20036;-76
2022/12/05 12:05:31;;;;;;;9.32;5.32;;;;;;;;;;4751310;30;20540;-77
2022/12/05 12:08:29;;;;;;;11.60;5.53;;;;;;;;;;4771531;30;20043;-76
2022/12/05 12:11:01;;;;;;;7.97;4.80;;;;;;;;;;4764299;30;20405;-76
2022/12/05 12:14:08;;;;;;;8.38;5.07;;;;;;;;;;4769567;30;20047;-76
2022/12/05 12:16:49;;;;;;;7.32;4.15;;;;;;;;;;4762280;30;20087;-77
2022/12/05 12:19:37;;;;;;;9.70;5.40;;;;;;;;;;4768484;30;20481;-76
2022/12/05 12:22:26;;;;;;;8.65;4.97;;;;;;;;;;4762398;30;20059;-77
2022/12/05 12:25:22;;;;;;;10.02;6.00;;;;;;;;;;4769954;30;20474;-76
2022/12/05 12:28:04;;;;;;;10.60;6.10;;;;;;;;;;4735411;30;20043;-76
2022/12/05 12:30:36;;;;;;;10.68;5.70;;;;;;;;;;4763526;30;20042;-76
2022/12/05 12:33:19;;;;;;;7.63;4.32;;;;;;;;;;4769099;30;20028;-76
2022/12/05 12:36:08;;;;;;;9.57;4.93;;;;;;;;;;4763877;30;20122;-75
2022/12/05 12:39:06;;;;;;;8.15;5.00;;;;;;;;;;4761901;30;20053;-76
2022/12/05 12:41:43;;;;;;;8.30;4.57;;;;;;;;;;4765624;30;20061;-76
2022/12/05 12:44:48;;;;;;;8.63;4.82;;;;;;;;;;4764272;30;20071;-76
2022/12/05 12:47:29;;;;;;;8.52;5.30;;;;;;;;;;4762193;30;20032;-76
2022/12/05 12:50:15;;;;;;;8.55;4.85;;;;;;;;;;4765224;30;20110;-76
2022/12/05 12:52:53;;;;;;;9.45;5.38;;;;;;;;;;4750091;30;20035;-76
2022/12/05 12:55:40;;;;;;;8.55;4.97;;;;;;;;;;4767015;30;20036;-76
2022/12/05 12:58:11;;;;;;;12.23;5.68;;;;;;;;;;4770918;30;20494;-76
2022/12/05 13:00:53;;;;;;;8.75;4.82;;;;;;;;;;4760643;30;20497;-76
2022/12/05 13:03:37;;;;;;;8.88;4.60;;;;;;;;;;4768415;30;21450;-76
2022/12/05 13:06:17;;;;;;;8.27;4.60;;;;;;;;;;4756634;30;20543;-76
2022/12/05 13:09:24;;;;;;;10.07;4.47;;;;;;;;;;4758499;30;20532;-76
2022/12/05 13:11:52;;;;;;;9.43;5.13;;;;;;;;;;4676331;30;20136;-76
2022/12/05 13:14:23;;;;;;;9.25;5.03;;;;;;;;;;4752482;30;20052;-76
2022/12/05 13:16:52;;;;;;;10.95;5.30;;;;;;;;;;4767240;30;20123;-76
2022/12/05 13:19:29;;;;;;;8.43;4.85;;;;;;;;;;4759387;30;20059;-76
2022/12/05 13:21:57;;;;;;;8.82;4.43;;;;;;;;;;4752960;30;20040;-76
2022/12/05 13:24:27;;;;;;;8.00;4.60;;;;;;;;;;4757675;30;20035;-77
2022/12/05 13:26:56;;;;;;;9.27;4.90;;;;;;;;;;4758688;30;20040;-76
2022/12/05 13:29:31;;;;;;;7.82;4.70;;;;;;;;;;4754798;30;20039;-76
2022/12/05 13:31:58;;;;;;;10.02;5.38;;;;;;;;;;4774820;30;20039;-76
2022/12/05 13:34:46;;;;;;;8.25;5.07;;;;;;;;;;4765748;30;20459;-76
2022/12/05 13:43:13;;;;;;;8.60;4.85;;;;;;;;;;4762840;30;20098;-76
2022/12/05 13:45:42;;;;;;;10.98;5.75;;;;;;;;;;4745682;30;20036;-76
2022/12/05 13:48:35;;;;;;;8.90;5.03;;;;;;;;;;4758352;30;20504;-76
2022/12/05 13:51:21;;;;;;;10.02;5.30;;;;;;;;;;4761941;30;20059;-76
2022/12/05 13:53:55;;;;;;;9.70;5.40;;;;;;;;;;4769555;30;20126;-76
2022/12/05 13:56:44;;;;;;;10.05;5.70;;;;;;;;;;4757279;30;20044;-76
2022/12/05 13:59:09;;;;;;;7.50;4.70;;;;;;;;;;4765109;30;20044;-76
2022/12/05 14:01:47;;;;;;;8.93;5.30;;;;;;;;;;4761386;30;20032;-76
2022/12/05 14:04:46;;;;;;;9.52;5.28;;;;;;;;;;4770440;30;20051;-77
2022/12/05 14:07:36;;;;;;;10.80;5.47;;;;;;;;;;4747321;30;20028;-77
2022/12/05 14:10:01;;;;;;;10.18;5.47;;;;;;;;;;4767708;30;20109;-76
2022/12/05 14:12:45;;;;;;;9.82;5.45;;;;;;;;;;4769333;30;20093;-76
2022/12/05 14:15:50;;;;;;;9.98;5.85;;;;;;;;;;4769247;30;20120;-76
2022/12/05 14:18:40;;;;;;;11.13;5.78;;;;;;;;;;4722817;30;20080;-77
2022/12/05 14:21:40;;;;;;;9.38;5.63;;;;;;;;;;4741875;30;20044;-76
2022/12/05 14:24:34;;;;;;;9.43;5.60;;;;;;;;;;4758236;30;20126;-77
2022/12/05 14:27:29;;;;;;;10.63;5.82;;;;;;;;;;4762763;30;20509;-76
2022/12/05 14:30:15;;;;;;;10.95;6.15;;;;;;;;;;4763345;30;20044;-76
2022/12/05 14:32:43;;;;;;;9.90;5.78;;;;;;;;;;4770572;30;20107;-76
2022/12/05 14:35:15;;;;;;;9.65;5.28;;;;;;;;;;4775699;30;20542;-76
2022/12/05 14:37:54;;;;;;;9.57;5.90;;;;;;;;;;4770917;30;20059;-77
2022/12/05 14:40:40;;;;;;;8.98;5.65;;;;;;;;;;4769606;30;20114;-76
2022/12/05 14:43:33;;;;;;;10.43;6.70;;;;;;;;;;4770350;30;20036;-76
2022/12/05 14:46:13;;;;;;;11.03;5.53;;;;;;;;;;4756973;30;20052;-76
2022/12/05 14:48:43;;;;;;;10.82;5.60;;;;;;;;;;4752176;30;20031;-76
2022/12/05 14:51:31;;;;;;;10.38;6.38;;;;;;;;;;4748647;30;20753;-76
2022/12/05 14:54:05;;;;;;;8.38;4.97;;;;;;;;;;4761763;30;20467;-76
2022/12/05 14:56:38;;;;;;;10.18;5.72;;;;;;;;;;4745421;30;20146;-76
2022/12/05 14:59:06;;;;;;;10.88;5.78;;;;;;;;;;4764711;30;20035;-77
2022/12/05 15:01:40;;;;;;;8.85;5.75;;;;;;;;;;4765769;30;20043;-77
2022/12/05 15:04:16;;;;;;;10.10;5.80;;;;;;;;;;4764705;30;20155;-76
2022/12/05 15:07:17;;;;;;;8.80;5.10;;;;;;;;;;4762128;30;20088;-76
2022/12/05 15:10:03;;;;;;;12.40;6.20;;;;;;;;;;4737979;30;20099;-76
2022/12/05 15:12:45;;;;;;;9.10;5.68;;;;;;;;;;4769239;30;20040;-76
2022/12/05 15:15:47;;;;;;;9.85;5.82;;;;;;;;;;4766296;30;20048;-76
2022/12/05 15:18:22;;;;;;;8.88;5.10;;;;;;;;;;4761013;30;20055;-76
2022/12/05 15:21:15;;;;;;;8.68;5.03;;;;;;;;;;4767119;30;20122;-76